sensor_id;sensor_type;location;lat;lon;timestamp;P1;P2;P0
55076;PMS7003;40971;44.702;11.030;2023-03-19T00:01:01;40.75;37.25;29.00
55076;PMS7003;40971;44.702;11.030;2023-03-19T00:11:06;42.33;40.50;26.00
55076;PMS7003;40971;44.702;11.030;2023-03-19T00:21:09;42.60;36.60;27.60
55076;PMS7003;40971;44.702;11.030;2023-03-19T00:31:13;45.20;43.60;30.00
55076;PMS7003;40971;44.702;11.030;2023-03-19T00:41:17;52.33;48.00;33.00
55076;PMS7003;40971;44.702;11.030;2023-03-19T00:51:21;46.00;42.50;30.00
55076;PMS7003;40971;44.702;11.030;2023-03-19T01:01:24;43.00;43.00;33.00
55076;PMS7003;40971;44.702;11.030;2023-03-19T01:11:26;51.00;43.80;31.00
55076;PMS7003;40971;44.702;11.030;2023-03-19T01:21:31;48.50;44.88;31.00
55076;PMS7003;40971;44.702;11.030;2023-03-19T01:31:35;49.00;48.00;31.67
55076;PMS7003;40971;44.702;11.030;2023-03-19T01:41:37;43.00;42.00;30.00
55076;PMS7003;40971;44.702;11.030;2023-03-19T01:51:40;55.00;48.00;33.67
55076;PMS7003;40971;44.702;11.030;2023-03-19T02:01:48;48.50;46.50;32.00
55076;PMS7003;40971;44.702;11.030;2023-03-19T02:11:56;51.00;46.00;33.00
55076;PMS7003;40971;44.702;11.030;2023-03-19T02:22:00;44.50;44.00;30.00
55076;PMS7003;40971;44.702;11.030;2023-03-19T02:32:05;56.33;49.00;33.67
55076;PMS7003;40971;44.702;11.030;2023-03-19T02:42:08;48.20;46.40;31.40
55076;PMS7003;40971;44.702;11.030;2023-03-19T02:52:12;51.00;45.50;31.00
55076;PMS7003;40971;44.702;11.030;2023-03-19T03:02:14;48.60;45.60;32.60
55076;PMS7003;40971;44.702;11.030;2023-03-19T03:12:18;44.50;43.75;30.00
55076;PMS7003;40971;44.702;11.030;2023-03-19T03:22:21;64.00;53.33;33.67
55076;PMS7003;40971;44.702;11.030;2023-03-19T03:32:24;48.67;47.00;31.67
55076;PMS7003;40971;44.702;11.030;2023-03-19T03:42:29;50.67;46.33;33.00
55076;PMS7003;40971;44.702;11.030;2023-03-19T03:52:32;47.67;46.33;32.33
55076;PMS7003;40971;44.702;11.030;2023-03-19T04:02:35;52.33;48.67;33.00
55076;PMS7003;40971;44.702;11.030;2023-03-19T04:12:38;57.67;49.67;34.00
55076;PMS7003;40971;44.702;11.030;2023-03-19T04:22:40;54.50;48.00;35.00
55076;PMS7003;40971;44.702;11.030;2023-03-19T04:32:45;57.78;51.56;34.00
55076;PMS7003;40971;44.702;11.030;2023-03-19T04:42:48;60.00;51.67;36.00
55076;PMS7003;40971;44.702;11.030;2023-03-19T04:52:51;66.67;55.67;37.33
55076;PMS7003;40971;44.702;11.030;2023-03-19T05:02:53;66.33;54.33;36.00
55076;PMS7003;40971;44.702;11.030;2023-03-19T05:12:56;64.00;55.00;36.33
55076;PMS7003;40971;44.702;11.030;2023-03-19T05:22:58;59.67;52.67;37.00
55076;PMS7003;40971;44.702;11.030;2023-03-19T05:33:02;50.63;46.63;34.50
55076;PMS7003;40971;44.702;11.030;2023-03-19T05:43:08;59.22;50.56;33.67
55076;PMS7003;40971;44.702;11.030;2023-03-19T05:53:11;67.00;55.33;36.33
55076;PMS7003;40971;44.702;11.030;2023-03-19T06:03:16;65.11;54.00;37.22
55076;PMS7003;40971;44.702;11.030;2023-03-19T06:13:19;66.00;56.67;37.67
55076;PMS7003;40971;44.702;11.030;2023-03-19T06:23:24;63.89;55.00;35.89
55076;PMS7003;40971;44.702;11.030;2023-03-19T06:33:27;66.33;57.00;39.00
55076;PMS7003;40971;44.702;11.030;2023-03-19T06:43:33;64.67;57.00;39.00
55076;PMS7003;40971;44.702;11.030;2023-03-19T06:53:38;71.00;59.00;39.00
55076;PMS7003;40971;44.702;11.030;2023-03-19T07:03:43;70.33;60.44;41.11
55076;PMS7003;40971;44.702;11.030;2023-03-19T07:13:47;67.63;57.75;39.00
55076;PMS7003;40971;44.702;11.030;2023-03-19T07:23:51;70.88;59.63;42.00
55076;PMS7003;40971;44.702;11.030;2023-03-19T07:33:55;74.38;61.13;41.38
55076;PMS7003;40971;44.702;11.030;2023-03-19T07:44:00;74.44;61.00;42.67
55076;PMS7003;40971;44.702;11.030;2023-03-19T07:54:03;71.33;60.00;42.67
55076;PMS7003;40971;44.702;11.030;2023-03-19T08:04:06;78.50;66.50;45.50
55076;PMS7003;40971;44.702;11.030;2023-03-19T08:14:09;73.67;63.67;42.67
55076;PMS7003;40971;44.702;11.030;2023-03-19T08:24:11;75.00;60.67;41.00
55076;PMS7003;40971;44.702;11.030;2023-03-19T08:34:14;80.00;67.00;46.00
55076;PMS7003;40971;44.702;11.030;2023-03-19T08:44:19;74.67;62.33;43.22
55076;PMS7003;40971;44.702;11.030;2023-03-19T08:54:24;68.00;57.44;39.56
55076;PMS7003;40971;44.702;11.030;2023-03-19T09:04:27;70.67;58.00;41.00
55076;PMS7003;40971;44.702;11.030;2023-03-19T09:14:30;71.67;60.67;40.67
55076;PMS7003;40971;44.702;11.030;2023-03-19T09:24:32;64.33;54.33;38.00
55076;PMS7003;40971;44.702;11.030;2023-03-19T09:34:34;73.33;59.67;38.33
55076;PMS7003;40971;44.702;11.030;2023-03-19T09:44:39;66.00;55.78;37.33
55076;PMS7003;40971;44.702;11.030;2023-03-19T09:54:47;72.67;58.33;38.67
55076;PMS7003;40971;44.702;11.030;2023-03-19T10:25:27;57.75;49.75;34.75
55076;PMS7003;40971;44.702;11.030;2023-03-19T10:35:38;55.00;47.67;32.00
55076;PMS7003;40971;44.702;11.030;2023-03-19T10:45:44;57.33;48.00;34.00
55076;PMS7003;40971;44.702;11.030;2023-03-19T10:55:55;46.67;42.00;30.00
55076;PMS7003;40971;44.702;11.030;2023-03-19T11:06:15;42.67;38.67;28.00
55076;PMS7003;40971;44.702;11.030;2023-03-19T11:16:20;43.00;39.00;25.67
55076;PMS7003;40971;44.702;11.030;2023-03-19T11:26:21;35.20;33.20;26.00
55076;PMS7003;40971;44.702;11.030;2023-03-19T11:46:46;30.67;29.67;21.00
55076;PMS7003;40971;44.702;11.030;2023-03-19T11:57:03;26.33;26.00;19.67
55076;PMS7003;40971;44.702;11.030;2023-03-19T12:27:37;28.00;28.00;21.50
55076;PMS7003;40971;44.702;11.030;2023-03-19T12:37:49;32.00;32.00;21.67
55076;PMS7003;40971;44.702;11.030;2023-03-19T12:48:03;29.50;27.50;22.50
55076;PMS7003;40971;44.702;11.030;2023-03-19T13:08:41;26.67;26.00;19.67
55076;PMS7003;40971;44.702;11.030;2023-03-19T13:18:56;26.67;23.67;19.00
55076;PMS7003;40971;44.702;11.030;2023-03-19T13:29:27;22.50;22.50;19.00
55076;PMS7003;40971;44.702;11.030;2023-03-19T13:39:32;29.50;28.00;20.00
55076;PMS7003;40971;44.702;11.030;2023-03-19T13:49:36;29.67;29.67;20.00
55076;PMS7003;40971;44.702;11.030;2023-03-19T14:10:48;29.33;28.00;20.67
55076;PMS7003;40971;44.702;11.030;2023-03-19T14:31:53;25.33;25.33;19.00
55076;PMS7003;40971;44.702;11.030;2023-03-19T14:52:31;29.00;25.67;18.00
55076;PMS7003;40971;44.702;11.030;2023-03-19T15:02:46;23.60;23.00;15.60
55076;PMS7003;40971;44.702;11.030;2023-03-19T15:23:11;28.00;26.50;19.00
55076;PMS7003;40971;44.702;11.030;2023-03-19T15:33:19;33.67;32.00;24.67
55076;PMS7003;40971;44.702;11.030;2023-03-19T15:43:30;33.67;30.33;21.33
55076;PMS7003;40971;44.702;11.030;2023-03-19T15:53:35;34.00;33.00;25.00
55076;PMS7003;40971;44.702;11.030;2023-03-19T16:03:43;36.00;36.00;25.00
55076;PMS7003;40971;44.702;11.030;2023-03-19T16:14:00;35.00;32.33;24.00
55076;PMS7003;40971;44.702;11.030;2023-03-19T16:24:13;37.67;36.00;25.33
55076;PMS7003;40971;44.702;11.030;2023-03-19T16:34:40;32.33;31.00;20.33
55076;PMS7003;40971;44.702;11.030;2023-03-19T16:44:47;37.33;35.00;27.00
55076;PMS7003;40971;44.702;11.030;2023-03-19T16:54:50;43.67;39.67;27.67
55076;PMS7003;40971;44.702;11.030;2023-03-19T17:04:53;40.67;37.00;27.00
55076;PMS7003;40971;44.702;11.030;2023-03-19T17:14:55;44.00;39.33;28.67
55076;PMS7003;40971;44.702;11.030;2023-03-19T17:24:57;44.00;41.33;28.67
55076;PMS7003;40971;44.702;11.030;2023-03-19T17:35:02;44.00;40.44;28.56
55076;PMS7003;40971;44.702;11.030;2023-03-19T17:45:10;41.78;39.78;28.11
55076;PMS7003;40971;44.702;11.030;2023-03-19T17:55:15;34.33;34.33;23.33
55076;PMS7003;40971;44.702;11.030;2023-03-19T18:05:21;41.67;38.00;28.00
55076;PMS7003;40971;44.702;11.030;2023-03-19T18:15:27;35.00;34.00;28.00
55076;PMS7003;40971;44.702;11.030;2023-03-19T18:25:34;55.67;45.67;30.67
55076;PMS7003;40971;44.702;11.030;2023-03-19T18:35:39;52.89;48.33;32.56
55076;PMS7003;40971;44.702;11.030;2023-03-19T18:45:47;62.33;50.33;34.67
55076;PMS7003;40971;44.702;11.030;2023-03-19T18:55:52;58.33;51.33;34.00
55076;PMS7003;40971;44.702;11.030;2023-03-19T19:05:54;62.00;50.33;35.00
55076;PMS7003;40971;44.702;11.030;2023-03-19T19:15:58;73.33;61.00;39.33
55076;PMS7003;40971;44.702;11.030;2023-03-19T19:26:00;72.33;59.67;39.67
55076;PMS7003;40971;44.702;11.030;2023-03-19T19:36:03;67.67;56.67;37.67
55076;PMS7003;40971;44.702;11.030;2023-03-19T19:46:07;63.33;53.00;39.00
55076;PMS7003;40971;44.702;11.030;2023-03-19T19:56:20;68.67;58.67;35.67
55076;PMS7003;40971;44.702;11.030;2023-03-19T20:06:24;75.33;64.00;41.00
55076;PMS7003;40971;44.702;11.030;2023-03-19T20:16:27;68.00;57.00;37.50
55076;PMS7003;40971;44.702;11.030;2023-03-19T20:26:31;67.88;57.50;38.00
55076;PMS7003;40971;44.702;11.030;2023-03-19T20:36:35;67.00;56.00;40.00
55076;PMS7003;40971;44.702;11.030;2023-03-19T20:46:39;65.67;55.67;38.00
55076;PMS7003;40971;44.702;11.030;2023-03-19T20:56:42;69.00;58.33;38.33
55076;PMS7003;40971;44.702;11.030;2023-03-19T21:06:47;70.33;58.00;38.33
55076;PMS7003;40971;44.702;11.030;2023-03-19T21:16:50;69.00;59.00;38.00
55076;PMS7003;40971;44.702;11.030;2023-03-19T21:26:54;71.00;60.25;38.75
55076;PMS7003;40971;44.702;11.030;2023-03-19T21:36:58;84.67;67.33;43.00
55076;PMS7003;40971;44.702;11.030;2023-03-19T21:47:03;79.44;65.33;42.67
55076;PMS7003;40971;44.702;11.030;2023-03-19T21:57:10;86.22;69.44;42.44
55076;PMS7003;40971;44.702;11.030;2023-03-19T22:07:14;77.33;65.67;42.00
55076;PMS7003;40971;44.702;11.030;2023-03-19T22:17:17;82.67;66.33;43.67
55076;PMS7003;40971;44.702;11.030;2023-03-19T22:27:20;67.00;58.00;43.00
55076;PMS7003;40971;44.702;11.030;2023-03-19T22:37:25;75.50;60.38;39.00
55076;PMS7003;40971;44.702;11.030;2023-03-19T22:47:29;72.50;60.50;40.00
55076;PMS7003;40971;44.702;11.030;2023-03-19T22:57:39;75.00;62.33;42.00
55076;PMS7003;40971;44.702;11.030;2023-03-19T23:07:42;81.33;65.33;42.67
55076;PMS7003;40971;44.702;11.030;2023-03-19T23:17:44;74.00;61.00;40.00
55076;PMS7003;40971;44.702;11.030;2023-03-19T23:27:47;79.00;63.00;41.33
55076;PMS7003;40971;44.702;11.030;2023-03-19T23:37:51;72.50;61.00;41.00
55076;PMS7003;40971;44.702;11.030;2023-03-19T23:48:00;74.33;60.67;39.00
55076;PMS7003;40971;44.702;11.030;2023-03-19T23:58:07;79.00;66.00;42.33
